Time;durP1;ratioP1;P1;durP2;ratioP2;P2;SDS_P1;SDS_P2;PMS_P1;PMS_P2;Temp;Humidity;BMP_temperature;BMP_pressure;BME280_temperature;BME280_humidity;BME280_pressure;Samples;Min_cycle;Max_cycle;Signal;HPM_P1;HPM_P2
2021/05/27 00:01:14;;;;;;;;;;;10.90;99.90;;;;;;10371547;28;20044;-51
2021/05/27 00:06:14;;;;;;;;;;;10.90;99.90;;;;;;10362831;28;20597;-51
2021/05/27 00:11:15;;;;;;;;;;;11.00;99.90;;;;;;10365776;28;19921;-50
2021/05/27 00:16:16;;;;;;;;;;;10.90;99.90;;;;;;10368120;28;20015;-51
2021/05/27 00:21:16;;;;;;;;;;;10.90;99.90;;;;;;10361079;28;20172;-51
2021/05/27 00:26:17;;;;;;;;;;;10.80;99.90;;;;;;10368378;28;19928;-51
2021/05/27 00:31:18;;;;;;;;;;;10.80;99.90;;;;;;10364529;28;19979;-50
2021/05/27 00:36:18;;;;;;;;;;;10.80;99.90;;;;;;10361979;28;19983;-51
2021/05/27 00:41:19;;;;;;;;;;;10.70;99.90;;;;;;10358512;28;19929;-50
2021/05/27 00:46:20;;;;;;;;;;;10.70;99.90;;;;;;10356630;28;20349;-50
2021/05/27 00:51:21;;;;;;;;;;;10.70;99.90;;;;;;10362183;28;19921;-51
2021/05/27 00:56:21;;;;;;;;;;;10.70;99.90;;;;;;10358420;28;19921;-51
2021/05/27 01:01:23;;;;;;;;;;;10.60;99.90;;;;;;10361428;28;19921;-51
2021/05/27 01:06:24;;;;;;;;;;;10.60;99.90;;;;;;10363099;28;20341;-51
2021/05/27 01:11:25;;;;;;;;;;;10.70;99.90;;;;;;10364549;28;19913;-51
2021/05/27 01:16:26;;;;;;;;;;;10.60;99.90;;;;;;10361581;28;19922;-51
2021/05/27 01:21:28;;;;;;;;;;;10.60;99.90;;;;;;10359501;28;20304;-51
2021/05/27 01:26:28;;;;;;;;;;;10.60;99.90;;;;;;10363578;28;19921;-51
2021/05/27 01:31:32;;;;;;;;;;;10.70;99.90;;;;;;10367369;28;19957;-51
2021/05/27 01:36:33;;;;;;;;;;;10.60;99.90;;;;;;10358678;28;20250;-51
2021/05/27 01:41:33;;;;;;;;;;;10.50;99.90;;;;;;10360953;28;20373;-51
2021/05/27 01:46:34;;;;;;;;;;;10.50;99.90;;;;;;10362831;28;20012;-50
2021/05/27 01:51:34;;;;;;;;;;;10.60;99.90;;;;;;10363056;28;19925;-51
2021/05/27 01:56:35;;;;;;;;;;;10.50;99.90;;;;;;10360340;28;20454;-50
2021/05/27 02:01:36;;;;;;;;;;;10.50;99.90;;;;;;10362774;28;19929;-51
2021/05/27 02:06:36;;;;;;;;;;;10.40;99.90;;;;;;10360767;28;19980;-51
2021/05/27 02:11:41;;;;;;;;;;;10.50;99.90;;;;;;10367728;28;19917;-51
2021/05/27 02:16:42;;;;;;;;;;;10.40;99.90;;;;;;10360610;28;19995;-51
2021/05/27 02:21:43;;;;;;;;;;;10.40;99.90;;;;;;10357704;28;19972;-51
2021/05/27 02:26:44;;;;;;;;;;;10.40;99.90;;;;;;10354288;28;19921;-51
2021/05/27 02:31:45;;;;;;;;;;;10.50;99.90;;;;;;10358378;28;19924;-51
2021/05/27 02:36:45;;;;;;;;;;;10.40;99.90;;;;;;10354822;28;20715;-51
2021/05/27 02:41:46;;;;;;;;;;;10.50;99.90;;;;;;10360994;28;19922;-51
2021/05/27 02:46:47;;;;;;;;;;;10.40;99.90;;;;;;10355238;28;19918;-51
2021/05/27 02:51:47;;;;;;;;;;;10.30;99.90;;;;;;10360428;28;20274;-51
2021/05/27 02:56:48;;;;;;;;;;;10.30;99.90;;;;;;10357508;28;19917;-52
2021/05/27 03:01:49;;;;;;;;;;;10.40;99.90;;;;;;10364850;28;20361;-51
2021/05/27 03:06:49;;;;;;;;;;;10.30;99.90;;;;;;10352962;28;19926;-51
2021/05/27 03:11:53;;;;;;;;;;;10.40;99.90;;;;;;10368303;28;19921;-51
2021/05/27 03:16:53;;;;;;;;;;;10.30;99.90;;;;;;10362673;28;19928;-51
2021/05/27 03:21:54;;;;;;;;;;;10.30;99.90;;;;;;10365009;28;19933;-51
2021/05/27 03:26:54;;;;;;;;;;;10.30;99.90;;;;;;10368427;28;20299;-51
2021/05/27 03:31:55;;;;;;;;;;;10.30;99.90;;;;;;10373025;28;20272;-51
2021/05/27 03:36:56;;;;;;;;;;;10.30;99.90;;;;;;10364463;28;20384;-51
2021/05/27 03:41:57;;;;;;;;;;;10.20;99.90;;;;;;10365335;28;20300;-51
2021/05/27 03:46:57;;;;;;;;;;;10.20;99.90;;;;;;10366001;28;20472;-51
2021/05/27 03:51:58;;;;;;;;;;;10.20;99.90;;;;;;10363361;28;19971;-51
2021/05/27 03:56:58;;;;;;;;;;;10.30;99.90;;;;;;10363349;28;20582;-51
2021/05/27 04:01:59;;;;;;;;;;;10.20;99.90;;;;;;10358359;28;19925;-51
2021/05/27 04:17:28;;;;;;;;;;;10.20;99.90;;;;;;10366809;28;19921;-51
2021/05/27 04:22:29;;;;;;;;;;;10.10;99.90;;;;;;10363258;28;19925;-51
2021/05/27 04:27:29;;;;;;;;;;;10.20;99.90;;;;;;10360838;28;19925;-51
2021/05/27 04:37:51;;;;;;;;;;;10.30;99.90;;;;;;10368069;28;20012;-51
2021/05/27 04:42:52;;;;;;;;;;;10.20;99.90;;;;;;10360307;28;19925;-52
2021/05/27 04:47:53;;;;;;;;;;;10.20;99.90;;;;;;10357761;28;19924;-52
2021/05/27 04:52:54;;;;;;;;;;;10.20;99.90;;;;;;10364074;28;20351;-51
2021/05/27 04:57:54;;;;;;;;;;;10.30;99.90;;;;;;10362361;28;19927;-51
2021/05/27 05:02:58;;;;;;;;;;;10.30;99.90;;;;;;10366627;28;19917;-51
2021/05/27 05:07:59;;;;;;;;;;;10.30;99.90;;;;;;10363929;28;20317;-51
2021/05/27 05:13:00;;;;;;;;;;;10.40;99.90;;;;;;10373004;28;19924;-51
2021/05/27 05:18:02;;;;;;;;;;;10.30;99.90;;;;;;10358242;28;19929;-51
2021/05/27 05:23:03;;;;;;;;;;;10.30;99.90;;;;;;10381535;28;19967;-51
2021/05/27 05:28:05;;;;;;;;;;;10.30;99.90;;;;;;10357663;28;20549;-51
2021/05/27 05:33:05;;;;;;;;;;;10.40;99.90;;;;;;10364631;28;20544;-51
2021/05/27 05:38:06;;;;;;;;;;;10.40;99.90;;;;;;10360197;28;19922;-51
2021/05/27 05:43:07;;;;;;;;;;;10.40;99.90;;;;;;10357336;28;19917;-52
2021/05/27 05:48:08;;;;;;;;;;;10.30;99.90;;;;;;10358622;28;19968;-51
2021/05/27 05:53:09;;;;;;;;;;;10.30;99.90;;;;;;10361180;28;19921;-51
2021/05/27 05:58:10;;;;;;;;;;;10.20;99.90;;;;;;10359988;28;19928;-51
2021/05/27 06:03:10;;;;;;;;;;;10.10;99.90;;;;;;10359993;28;19929;-51
2021/05/27 06:08:11;;;;;;;;;;;10.20;99.90;;;;;;10360894;28;19917;-51
2021/05/27 06:13:12;;;;;;;;;;;10.30;99.90;;;;;;10363031;28;19979;-51
2021/05/27 06:18:13;;;;;;;;;;;10.20;99.90;;;;;;10354882;28;20027;-51
2021/05/27 06:23:13;;;;;;;;;;;10.30;99.90;;;;;;10361836;28;20381;-51
2021/05/27 06:28:16;;;;;;;;;;;10.30;99.90;;;;;;10360891;28;20216;-51
2021/05/27 06:33:16;;;;;;;;;;;10.20;99.90;;;;;;10359737;28;19925;-51
2021/05/27 06:38:17;;;;;;;;;;;10.20;99.90;;;;;;10357232;28;19925;-51
2021/05/27 06:43:18;;;;;;;;;;;10.30;99.90;;;;;;10359624;28;19932;-51
2021/05/27 06:48:19;;;;;;;;;;;10.30;99.90;;;;;;10356225;28;19917;-51
2021/05/27 06:53:20;;;;;;;;;;;10.30;99.90;;;;;;10351123;28;19925;-51
2021/05/27 06:58:20;;;;;;;;;;;10.20;99.90;;;;;;10363333;28;20391;-52
2021/05/27 07:03:22;;;;;;;;;;;10.30;99.90;;;;;;10361965;28;19929;-52
2021/05/27 07:08:22;;;;;;;;;;;10.40;99.90;;;;;;10356996;28;20226;-52
2021/05/27 07:13:23;;;;;;;;;;;10.40;99.90;;;;;;10353027;28;19948;-51
2021/05/27 07:18:23;;;;;;;;;;;10.30;99.90;;;;;;10354239;28;19933;-51
2021/05/27 07:23:24;;;;;;;;;;;10.40;99.90;;;;;;10361988;28;20338;-52
2021/05/27 07:28:25;;;;;;;;;;;10.40;99.90;;;;;;10352392;28;20016;-51
2021/05/27 07:33:25;;;;;;;;;;;10.50;99.90;;;;;;10353685;28;19920;-52
2021/05/27 07:38:26;;;;;;;;;;;10.50;99.90;;;;;;10356430;28;19925;-51
2021/05/27 07:43:26;;;;;;;;;;;10.50;99.90;;;;;;10364331;28;19988;-51
2021/05/27 07:48:27;;;;;;;;;;;10.50;99.90;;;;;;10352923;28;19932;-51
2021/05/27 07:53:30;;;;;;;;;;;10.70;99.90;;;;;;10356586;28;19921;-51
2021/05/27 07:58:30;;;;;;;;;;;10.70;99.90;;;;;;10352446;28;20301;-51
2021/05/27 08:03:31;;;;;;;;;;;10.60;99.90;;;;;;10354752;28;20246;-51
2021/05/27 08:08:32;;;;;;;;;;;10.70;99.90;;;;;;10361049;28;20103;-51
2021/05/27 08:13:33;;;;;;;;;;;10.70;99.90;;;;;;10358332;28;20258;-51
2021/05/27 08:18:33;;;;;;;;;;;10.70;99.90;;;;;;10357529;28;19929;-51
2021/05/27 08:23:34;;;;;;;;;;;10.70;99.90;;;;;;10357446;28;20408;-51
2021/05/27 08:28:35;;;;;;;;;;;10.70;99.90;;;;;;10362867;28;19952;-50
2021/05/27 08:33:35;;;;;;;;;;;10.60;99.90;;;;;;10360401;28;19933;-51
2021/05/27 08:38:36;;;;;;;;;;;10.50;99.90;;;;;;10359575;28;19948;-51
2021/05/27 08:43:37;;;;;;;;;;;10.70;99.90;;;;;;10358418;28;20644;-50
2021/05/27 08:48:37;;;;;;;;;;;10.80;99.90;;;;;;10358019;28;20011;-51
2021/05/27 08:53:39;;;;;;;;;;;10.80;99.90;;;;;;10361276;28;19927;-51
2021/05/27 08:58:40;;;;;;;;;;;10.90;99.90;;;;;;10359172;28;20141;-51
2021/05/27 09:03:41;;;;;;;;;;;10.90;99.90;;;;;;10359193;28;19921;-50
2021/05/27 09:08:43;;;;;;;;;;;10.90;99.90;;;;;;10359701;28;19920;-50
2021/05/27 09:13:51;;;;;;;;;;;10.90;99.90;;;;;;10361375;28;19957;-51
2021/05/27 09:18:51;;;;;;;;;;;10.80;99.90;;;;;;10360559;28;20412;-51
2021/05/27 09:23:52;;;;;;;;;;;10.90;99.90;;;;;;10362599;28;19928;-51
2021/05/27 09:29:07;;;;;;;;;;;11.00;99.90;;;;;;10366777;28;20000;-51
2021/05/27 09:34:10;;;;;;;;;;;11.00;99.90;;;;;;10360833;28;19917;-51
2021/05/27 09:39:11;;;;;;;;;;;11.00;99.90;;;;;;10357359;28;19925;-50
2021/05/27 09:44:12;;;;;;;;;;;11.20;99.90;;;;;;10354466;28;19929;-51
2021/05/27 09:49:13;;;;;;;;;;;11.20;99.90;;;;;;10357077;28;20278;-51
2021/05/27 09:54:14;;;;;;;;;;;11.20;99.90;;;;;;10354228;28;19929;-50
2021/05/27 09:59:16;;;;;;;;;;;11.30;99.90;;;;;;10355562;28;19921;-51
2021/05/27 10:04:17;;;;;;;;;;;11.10;99.90;;;;;;10357905;28;19917;-50
2021/05/27 10:09:19;;;;;;;;;;;11.30;99.90;;;;;;10357377;28;20637;-51
2021/05/27 10:14:19;;;;;;;;;;;11.30;99.90;;;;;;10360723;28;20271;-50
2021/05/27 10:19:20;;;;;;;;;;;11.30;99.90;;;;;;10353334;28;19929;-51
2021/05/27 10:24:21;;;;;;;;;;;11.30;99.90;;;;;;10359354;28;20020;-50
2021/05/27 10:29:23;;;;;;;;;;;11.30;99.90;;;;;;10367824;28;19948;-51
2021/05/27 10:34:40;;;;;;;;;;;11.30;99.90;;;;;;10358522;28;20021;-51
2021/05/27 10:39:41;;;;;;;;;;;11.30;99.90;;;;;;10351503;28;19925;-51
2021/05/27 10:45:04;;;;;;;;;;;11.20;99.90;;;;;;10364147;28;20568;-51
2021/05/27 10:50:07;;;;;;;;;;;11.30;99.90;;;;;;10360300;28;19967;-50
2021/05/27 10:55:28;;;;;;;;;;;11.30;99.90;;;;;;10355934;28;20443;-51
2021/05/27 11:00:31;;;;;;;;;;;11.40;99.90;;;;;;10353468;28;19922;-50
2021/05/27 11:05:32;;;;;;;;;;;11.50;99.90;;;;;;10358494;28;19999;-51
2021/05/27 11:10:33;;;;;;;;;;;11.90;99.90;;;;;;10354949;28;20265;-51
2021/05/27 11:15:33;;;;;;;;;;;12.10;99.90;;;;;;10354650;28;19973;-51
2021/05/27 11:20:34;;;;;;;;;;;12.30;99.90;;;;;;10355382;28;19924;-51
2021/05/27 11:25:36;;;;;;;;;;;12.80;99.90;;;;;;10356582;28;19925;-51
2021/05/27 11:30:40;;;;;;;;;;;13.00;99.90;;;;;;10366525;28;19979;-51
2021/05/27 11:35:41;;;;;;;;;;;13.10;99.90;;;;;;10360810;28;19918;-51
2021/05/27 11:41:02;;;;;;;;;;;12.90;99.90;;;;;;10360024;28;19925;-51
2021/05/27 11:46:07;;;;;;;;;;;12.80;99.90;;;;;;10356863;28;20008;-51
2021/05/27 11:51:15;;;;;;;;;;;12.60;99.90;;;;;;10363675;28;19940;-51
2021/05/27 11:56:27;;;;;;;;;;;12.60;99.90;;;;;;10363500;28;19928;-51
2021/05/27 12:01:29;;;;;;;;;;;12.50;99.90;;;;;;10372487;28;19928;-51
2021/05/27 12:06:43;;;;;;;;;;;12.60;99.90;;;;;;10361202;28;20004;-51
2021/05/27 12:11:43;;;;;;;;;;;12.50;99.90;;;;;;10361307;28;19944;-51
2021/05/27 12:16:44;;;;;;;;;;;12.40;99.90;;;;;;10363643;28;19921;-51
2021/05/27 12:21:56;;;;;;;;;;;12.80;99.90;;;;;;10365484;28;19921;-51
2021/05/27 12:26:58;;;;;;;;;;;13.10;99.90;;;;;;10362159;28;19932;-51
2021/05/27 12:31:58;;;;;;;;;;;13.00;99.90;;;;;;10362975;28;20444;-51
2021/05/27 12:37:00;;;;;;;;;;;13.00;99.90;;;;;;10361478;28;20014;-51
2021/05/27 12:42:02;;;;;;;;;;;12.90;99.90;;;;;;10358345;28;19951;-51
2021/05/27 12:47:12;;;;;;;;;;;12.80;99.90;;;;;;10361624;28;19913;-51
2021/05/27 12:52:33;;;;;;;;;;;12.80;99.90;;;;;;10359185;28;19925;-51
2021/05/27 12:57:48;;;;;;;;;;;12.60;99.90;;;;;;10354616;28;20000;-51
2021/05/27 13:02:59;;;;;;;;;;;12.50;99.90;;;;;;10362795;28;20386;-51
2021/05/27 13:08:01;;;;;;;;;;;12.50;99.90;;;;;;10363675;28;20269;-51
2021/05/27 13:13:03;;;;;;;;;;;12.80;99.90;;;;;;10362153;28;19944;-51
2021/05/27 13:18:08;;;;;;;;;;;12.80;99.90;;;;;;10361796;28;19925;-51
2021/05/27 13:23:36;;;;;;;;;;;12.70;99.90;;;;;;10365557;28;20332;-51
2021/05/27 13:28:37;;;;;;;;;;;12.70;99.90;;;;;;10365312;28;19913;-51
2021/05/27 13:33:38;;;;;;;;;;;12.80;99.90;;;;;;10360940;28;19976;-51
2021/05/27 13:38:39;;;;;;;;;;;12.90;99.90;;;;;;10361117;28;20414;-51
2021/05/27 13:43:39;;;;;;;;;;;12.70;99.90;;;;;;10359853;28;19918;-51
2021/05/27 13:48:40;;;;;;;;;;;12.90;99.90;;;;;;10358108;28;19978;-51
2021/05/27 13:53:41;;;;;;;;;;;13.00;99.90;;;;;;10363878;28;19925;-51
2021/05/27 13:58:41;;;;;;;;;;;13.20;99.90;;;;;;10361608;28;19926;-51
2021/05/27 14:03:42;;;;;;;;;;;13.20;99.90;;;;;;10358061;28;20210;-51
2021/05/27 14:08:44;;;;;;;;;;;13.10;99.90;;;;;;10359902;28;19925;-51
2021/05/27 14:13:45;;;;;;;;;;;13.10;99.90;;;;;;10360978;28;19922;-51
2021/05/27 14:18:45;;;;;;;;;;;12.90;99.90;;;;;;10359772;28;19925;-51
2021/05/27 14:23:46;;;;;;;;;;;12.80;99.90;;;;;;10361581;28;19929;-51
2021/05/27 14:28:47;;;;;;;;;;;12.80;99.90;;;;;;10361125;28;20357;-51
2021/05/27 14:33:48;;;;;;;;;;;13.00;99.90;;;;;;10360891;28;19921;-51
2021/05/27 14:38:48;;;;;;;;;;;13.00;99.90;;;;;;10360378;28;20012;-51
2021/05/27 14:43:49;;;;;;;;;;;12.90;99.90;;;;;;10360678;28;19913;-51
2021/05/27 14:48:50;;;;;;;;;;;13.00;99.90;;;;;;10353457;28;19943;-51
2021/05/27 14:53:50;;;;;;;;;;;13.00;99.90;;;;;;10367604;28;19921;-52
2021/05/27 14:58:51;;;;;;;;;;;13.00;99.90;;;;;;10360280;28;19964;-51
2021/05/27 15:03:52;;;;;;;;;;;12.90;99.90;;;;;;10357501;28;20193;-51
2021/05/27 15:08:52;;;;;;;;;;;12.90;99.90;;;;;;10358976;28;20492;-51
2021/05/27 15:13:53;;;;;;;;;;;12.80;99.90;;;;;;10362051;28;19921;-51
2021/05/27 15:18:53;;;;;;;;;;;12.90;99.90;;;;;;10362480;28;20046;-51
2021/05/27 15:23:54;;;;;;;;;;;13.00;99.90;;;;;;10368415;28;20373;-51
2021/05/27 15:28:54;;;;;;;;;;;13.20;99.90;;;;;;10361152;28;19944;-51
2021/05/27 15:33:55;;;;;;;;;;;13.40;99.90;;;;;;10364413;28;20365;-52
2021/05/27 15:38:56;;;;;;;;;;;13.50;99.90;;;;;;10368149;28;19933;-52
2021/05/27 15:43:56;;;;;;;;;;;13.40;99.90;;;;;;10370562;28;20536;-51
2021/05/27 15:48:57;;;;;;;;;;;13.40;99.90;;;;;;10363378;28;19921;-51
2021/05/27 15:53:58;;;;;;;;;;;13.70;99.90;;;;;;10372373;28;19917;-51
2021/05/27 15:58:58;;;;;;;;;;;13.90;99.90;;;;;;10365719;28;19925;-51
2021/05/27 16:03:59;;;;;;;;;;;13.70;99.90;;;;;;10357976;28;20633;-51
2021/05/27 16:09:00;;;;;;;;;;;13.80;99.90;;;;;;10361521;28;21904;-51
2021/05/27 16:14:00;;;;;;;;;;;14.00;99.90;;;;;;10363782;28;20187;-52
2021/05/27 16:19:01;;;;;;;;;;;13.80;99.90;;;;;;10360464;28;19960;-51
2021/05/27 16:24:02;;;;;;;;;;;13.80;99.90;;;;;;10368903;28;20274;-51
2021/05/27 16:29:03;;;;;;;;;;;13.80;99.90;;;;;;10365675;28;19925;-51
2021/05/27 16:34:13;;;;;;;;;;;13.80;99.90;;;;;;10361927;28;19992;-51
2021/05/27 16:39:14;;;;;;;;;;;13.60;99.90;;;;;;10366086;28;19917;-51
2021/05/27 16:44:15;;;;;;;;;;;13.40;99.90;;;;;;10356108;28;19918;-51
2021/05/27 16:49:16;;;;;;;;;;;13.60;99.90;;;;;;10359795;28;19917;-51
2021/05/27 16:54:17;;;;;;;;;;;13.80;99.90;;;;;;10359891;28;20051;-51
2021/05/27 16:59:23;;;;;;;;;;;13.60;99.90;;;;;;10361561;28;19982;-52
2021/05/27 17:04:24;;;;;;;;;;;13.40;99.90;;;;;;10364661;28;19921;-51
2021/05/27 17:09:25;;;;;;;;;;;13.50;99.90;;;;;;10359625;28;20493;-52
2021/05/27 17:14:26;;;;;;;;;;;13.50;99.90;;;;;;10357822;28;19941;-51
2021/05/27 17:19:26;;;;;;;;;;;13.40;99.90;;;;;;10357080;28;19921;-51
2021/05/27 17:24:27;;;;;;;;;;;13.20;99.90;;;;;;10358143;28;19933;-51
2021/05/27 17:29:28;;;;;;;;;;;13.20;99.90;;;;;;10360169;28;19922;-51
2021/05/27 17:34:31;;;;;;;;;;;13.20;99.90;;;;;;10362882;28;19928;-52
2021/05/27 17:39:31;;;;;;;;;;;13.10;99.90;;;;;;10356801;28;22151;-51
2021/05/27 17:44:35;;;;;;;;;;;13.10;99.90;;;;;;10353756;28;20382;-51
2021/05/27 17:49:35;;;;;;;;;;;13.00;99.90;;;;;;10358834;28;20444;-51
2021/05/27 17:54:36;;;;;;;;;;;13.10;99.90;;;;;;10358221;28;19968;-51
2021/05/27 17:59:37;;;;;;;;;;;12.90;99.90;;;;;;10359811;28;20337;-51
2021/05/27 18:04:37;;;;;;;;;;;12.80;99.90;;;;;;10359212;28;20336;-51
2021/05/27 18:09:38;;;;;;;;;;;12.70;99.90;;;;;;10352932;28;19921;-51
2021/05/27 18:14:38;;;;;;;;;;;12.70;99.90;;;;;;10369367;28;20038;-51
2021/05/27 18:19:39;;;;;;;;;;;12.70;99.90;;;;;;10364527;28;20067;-51
2021/05/27 18:24:39;;;;;;;;;;;12.70;99.90;;;;;;10332481;28;19983;-51
2021/05/27 18:29:40;;;;;;;;;;;12.50;99.90;;;;;;10341256;28;20884;-51
2021/05/27 18:34:41;;;;;;;;;;;12.50;99.90;;;;;;10351528;28;19925;-51
2021/05/27 18:39:42;;;;;;;;;;;12.50;99.90;;;;;;10347501;28;20467;-51
2021/05/27 18:44:42;;;;;;;;;;;12.50;99.90;;;;;;10351884;28;19921;-51
2021/05/27 18:49:44;;;;;;;;;;;12.50;99.90;;;;;;10353694;28;19921;-51
2021/05/27 18:54:46;;;;;;;;;;;12.40;99.90;;;;;;10352052;28;19918;-51
2021/05/27 18:59:47;;;;;;;;;;;12.30;99.90;;;;;;10352820;28;20305;-51
2021/05/27 19:04:48;;;;;;;;;;;12.20;99.90;;;;;;10352531;28;20258;-51
2021/05/27 19:09:49;;;;;;;;;;;12.20;99.90;;;;;;10352116;28;19922;-52
2021/05/27 19:14:50;;;;;;;;;;;12.30;99.90;;;;;;10350174;28;19921;-51
2021/05/27 19:19:51;;;;;;;;;;;12.30;99.90;;;;;;10351084;28;19925;-51
2021/05/27 19:24:51;;;;;;;;;;;12.00;99.90;;;;;;10349820;28;19933;-51
2021/05/27 19:29:52;;;;;;;;;;;12.00;99.90;;;;;;10357204;28;19948;-51
2021/05/27 19:34:52;;;;;;;;;;;11.80;99.90;;;;;;10354283;28;19925;-51
2021/05/27 19:39:55;;;;;;;;;;;11.70;99.90;;;;;;10353000;28;19926;-51
2021/05/27 19:44:56;;;;;;;;;;;11.50;99.90;;;;;;10353714;28;20436;-51
2021/05/27 19:49:56;;;;;;;;;;;11.50;99.90;;;;;;10349173;28;19924;-51
2021/05/27 19:54:57;;;;;;;;;;;11.50;99.90;;;;;;10354388;28;20436;-52
2021/05/27 19:59:58;;;;;;;;;;;11.60;99.90;;;;;;10354555;28;19971;-51
2021/05/27 20:04:59;;;;;;;;;;;11.50;99.90;;;;;;10362023;28;20522;-51
2021/05/27 20:10:00;;;;;;;;;;;11.40;99.90;;;;;;10359796;28;19929;-51
2021/05/27 20:15:00;;;;;;;;;;;11.30;99.90;;;;;;10361361;28;20241;-51
2021/05/27 20:20:02;;;;;;;;;;;11.20;99.90;;;;;;10361787;28;19962;-51
2021/05/27 20:25:03;;;;;;;;;;;11.20;99.90;;;;;;10361372;28;19928;-51
2021/05/27 20:30:05;;;;;;;;;;;11.00;99.90;;;;;;10359292;28;20403;-52
2021/05/27 20:35:06;;;;;;;;;;;10.90;99.90;;;;;;10364559;28;19955;-51
2021/05/27 20:40:07;;;;;;;;;;;10.80;99.90;;;;;;10359402;28;19931;-51
2021/05/27 20:45:08;;;;;;;;;;;10.80;99.90;;;;;;10360230;28;19920;-51
2021/05/27 20:50:10;;;;;;;;;;;10.70;99.90;;;;;;10363845;28;20389;-51
2021/05/27 20:55:11;;;;;;;;;;;10.50;99.90;;;;;;10363581;28;19928;-51
2021/05/27 21:00:12;;;;;;;;;;;10.50;99.90;;;;;;10379194;28;19936;-51
2021/05/27 21:05:13;;;;;;;;;;;10.40;99.90;;;;;;10362825;28;20245;-51
2021/05/27 21:10:15;;;;;;;;;;;10.40;99.90;;;;;;10357811;28;20047;-51
2021/05/27 21:15:15;;;;;;;;;;;10.30;99.90;;;;;;10358782;28;20039;-51
2021/05/27 21:20:16;;;;;;;;;;;10.30;99.90;;;;;;10362296;28;19935;-51
2021/05/27 21:25:16;;;;;;;;;;;10.20;99.90;;;;;;10353737;28;19933;-51
2021/05/27 21:30:17;;;;;;;;;;;10.30;99.90;;;;;;10362867;28;19979;-51
2021/05/27 21:35:18;;;;;;;;;;;10.20;99.90;;;;;;10372623;28;20008;-51
2021/05/27 21:40:19;;;;;;;;;;;10.10;99.90;;;;;;10358669;28;20870;-51
2021/05/27 21:45:20;;;;;;;;;;;10.10;99.90;;;;;;10366659;28;19924;-51
2021/05/27 21:50:21;;;;;;;;;;;10.00;99.90;;;;;;10367245;28;19941;-51
2021/05/27 21:55:22;;;;;;;;;;;10.00;99.90;;;;;;10368089;28;20709;-51
2021/05/27 22:00:23;;;;;;;;;;;9.90;99.90;;;;;;10368855;28;20430;-51
2021/05/27 22:05:23;;;;;;;;;;;9.90;99.90;;;;;;10361363;28;19921;-51
2021/05/27 22:10:24;;;;;;;;;;;9.80;99.90;;;;;;10361810;28;19929;-50
2021/05/27 22:15:35;;;;;;;;;;;9.70;99.90;;;;;;10365377;28;20284;-51
2021/05/27 22:20:40;;;;;;;;;;;9.60;99.90;;;;;;10362521;28;19917;-51
2021/05/27 22:25:41;;;;;;;;;;;9.50;99.90;;;;;;10359943;28;19929;-51
2021/05/27 22:30:42;;;;;;;;;;;9.40;99.90;;;;;;10365567;28;19967;-51
2021/05/27 22:35:43;;;;;;;;;;;9.30;99.90;;;;;;10359738;28;20434;-51
2021/05/27 22:40:43;;;;;;;;;;;9.20;99.90;;;;;;10359280;28;19932;-51
2021/05/27 22:45:44;;;;;;;;;;;9.10;99.90;;;;;;10355462;28;22330;-51
2021/05/27 22:50:45;;;;;;;;;;;9.00;99.90;;;;;;10358961;28;19933;-51
2021/05/27 22:55:45;;;;;;;;;;;8.90;99.90;;;;;;10365373;28;19925;-51
2021/05/27 23:00:46;;;;;;;;;;;8.90;99.90;;;;;;10363526;28;19917;-51
2021/05/27 23:05:47;;;;;;;;;;;8.90;99.90;;;;;;10360228;28;20078;-51
2021/05/27 23:10:47;;;;;;;;;;;8.90;99.90;;;;;;10359321;28;19928;-51
2021/05/27 23:15:48;;;;;;;;;;;8.90;99.90;;;;;;10356285;28;19976;-50
2021/05/27 23:20:48;;;;;;;;;;;8.80;99.90;;;;;;10358032;28;19929;-51
2021/05/27 23:25:49;;;;;;;;;;;8.70;99.90;;;;;;10361962;28;19929;-51
2021/05/27 23:30:49;;;;;;;;;;;8.70;99.90;;;;;;10363839;28;19918;-51
2021/05/27 23:35:50;;;;;;;;;;;8.70;99.90;;;;;;10365944;28;19948;-50
2021/05/27 23:40:51;;;;;;;;;;;8.70;99.90;;;;;;10368129;28;19921;-52
2021/05/27 23:45:52;;;;;;;;;;;8.80;99.90;;;;;;10363811;28;19922;-51
2021/05/27 23:50:52;;;;;;;;;;;8.80;99.90;;;;;;10371282;28;19927;-51
2021/05/27 23:55:53;;;;;;;;;;;8.70;99.90;;;;;;10368953;28;19944;-51
